Time;durP1;ratioP1;P1;durP2;ratioP2;P2;SDS_P1;SDS_P2;PMS_P1;PMS_P2;Temp;Humidity;BMP_temperature;BMP_pressure;BME280_temperature;BME280_humidity;BME280_pressure;Samples;Min_cycle;Max_cycle;Signal;HPM_P1;HPM_P2
2024/04/20 00:00:18;;;;;;;;;12.75;10.50;;;;;9.17;64.14;101917.91;5331427;26;44408;-73
2024/04/20 00:02:43;;;;;;;;;14.75;10.00;;;;;9.10;63.97;101908.03;5276114;26;70800;-73
2024/04/20 00:05:08;;;;;;;;;14.75;11.75;;;;;9.11;64.16;101915.84;5330807;26;63176;-72
2024/04/20 00:07:34;;;;;;;;;12.75;10.50;;;;;9.07;64.51;101917.09;5284451;26;58514;-73
2024/04/20 00:09:59;;;;;;;;;14.50;11.50;;;;;9.07;64.21;101922.38;5335432;26;53072;-73
2024/04/20 00:12:25;;;;;;;;;13.00;8.00;;;;;9.01;64.25;101910.59;5335764;26;61260;-72
2024/04/20 00:14:51;;;;;;;;;9.50;7.00;;;;;8.98;64.09;101913.53;5329811;26;47324;-72
2024/04/20 00:17:16;;;;;;;;;8.00;6.00;;;;;9.00;64.32;101916.84;5279931;26;43658;-73
2024/04/20 00:19:42;;;;;;;;;9.25;5.50;;;;;8.98;64.05;101923.25;5329652;26;64767;-73
2024/04/20 00:22:07;;;;;;;;;12.50;6.00;;;;;8.97;63.98;101916.28;5336865;26;45301;-73
2024/04/20 00:24:33;;;;;;;;;6.50;5.25;;;;;8.94;63.98;101920.09;5299743;26;48926;-72
2024/04/20 00:26:58;;;;;;;;;9.25;7.00;;;;;8.85;63.82;101913.84;5337505;26;64296;-73
2024/04/20 00:29:23;;;;;;;;;8.00;7.75;;;;;8.88;63.94;101920.66;5330245;26;65059;-72
2024/04/20 00:31:49;;;;;;;;;12.00;5.00;;;;;8.82;64.19;101921.25;5336071;26;43625;-73
2024/04/20 00:34:14;;;;;;;;;7.25;4.50;;;;;8.80;63.66;101918.72;5335052;26;43894;-72
2024/04/20 00:36:40;;;;;;;;;9.25;7.50;;;;;8.80;63.74;101926.66;5338174;26;43917;-74
2024/04/20 00:39:05;;;;;;;;;12.75;8.00;;;;;8.80;64.03;101931.13;5316530;26;49614;-73
2024/04/20 00:41:30;;;;;;;;;10.00;10.00;;;;;8.78;64.02;101927.78;5329448;26;62506;-72
2024/04/20 00:43:56;;;;;;;;;19.75;12.75;;;;;8.73;63.84;101925.56;5296337;26;63664;-73
2024/04/20 00:46:24;;;;;;;;;19.50;16.25;;;;;8.71;63.59;101927.50;5310130;26;43518;-73
2024/04/20 00:48:50;;;;;;;;;24.25;17.75;;;;;8.67;63.95;101923.50;5331821;26;43921;-75
2024/04/20 00:51:16;;;;;;;;;28.00;22.00;;;;;8.64;63.62;101919.31;5338152;26;47861;-75
2024/04/20 00:53:41;;;;;;;;;27.50;21.50;;;;;8.61;63.54;101927.53;5288641;26;44171;-73
2024/04/20 00:56:07;;;;;;;;;32.75;22.00;;;;;8.62;64.01;101931.84;5302265;26;63652;-75
2024/04/20 00:58:32;;;;;;;;;33.75;24.00;;;;;8.53;63.52;101912.38;5332762;26;63389;-74
2024/04/20 01:00:57;;;;;;;;;24.00;21.00;;;;;8.56;63.89;101927.13;5297765;26;68523;-75
2024/04/20 01:03:26;;;;;;;;;35.25;27.25;;;;;8.54;63.76;101926.44;5339349;26;65619;-73
2024/04/20 01:05:52;;;;;;;;;26.50;22.00;;;;;8.52;64.04;101923.94;5335221;26;43638;-74
2024/04/20 01:08:17;;;;;;;;;20.00;9.50;;;;;8.51;64.14;101924.06;5276230;26;44709;-75
2024/04/20 01:10:42;;;;;;;;;16.25;10.00;;;;;8.48;64.04;101925.16;5291917;26;66261;-72
2024/04/20 01:13:08;;;;;;;;;15.75;12.50;;;;;8.46;64.55;101925.28;5279605;26;62857;-75
2024/04/20 01:15:34;;;;;;;;;11.25;5.75;;;;;8.42;63.93;101929.19;5311090;26;44899;-74
2024/04/20 01:17:59;;;;;;;;;6.75;5.00;;;;;8.41;64.54;101930.16;5253614;26;44002;-75
2024/04/20 01:20:25;;;;;;;;;5.75;5.50;;;;;8.39;64.37;101926.03;5294154;26;44980;-73
2024/04/20 01:22:51;;;;;;;;;9.25;1.50;;;;;8.36;64.75;101928.94;5296305;26;67236;-73
2024/04/20 01:25:16;;;;;;;;;7.75;6.75;;;;;8.35;64.07;101932.56;5339265;26;43719;-73
2024/04/20 01:27:44;;;;;;;;;11.50;4.50;;;;;8.31;64.52;101927.53;5298913;26;45659;-74
2024/04/20 01:30:09;;;;;;;;;8.00;4.00;;;;;8.31;64.36;101924.06;5297072;26;44323;-74
2024/04/20 01:32:35;;;;;;;;;7.25;3.00;;;;;8.32;64.40;101942.41;5330577;26;43636;-73
2024/04/20 01:35:00;;;;;;;;;14.50;6.25;;;;;8.30;64.48;101932.97;5329615;26;43715;-74
2024/04/20 01:37:26;;;;;;;;;7.50;5.25;;;;;8.25;64.53;101933.38;5332350;26;67334;-74
2024/04/20 01:39:51;;;;;;;;;7.00;4.50;;;;;8.23;64.34;101931.84;5325234;26;44863;-74
2024/04/20 01:42:16;;;;;;;;;9.00;4.50;;;;;8.25;64.33;101943.94;5268501;26;45471;-74
2024/04/20 01:44:42;;;;;;;;;9.50;5.00;;;;;8.24;64.48;101944.91;5318601;26;60755;-75
2024/04/20 01:47:07;;;;;;;;;7.50;6.25;;;;;8.22;64.31;101943.41;5319512;26;44056;-74
2024/04/20 01:49:33;;;;;;;;;11.50;5.75;;;;;8.20;64.36;101943.53;5295604;26;44749;-73
2024/04/20 01:51:59;;;;;;;;;10.75;6.25;;;;;8.20;64.73;101954.09;5292542;26;66770;-73
2024/04/20 01:54:24;;;;;;;;;9.25;5.25;;;;;8.17;64.05;101944.66;5330644;26;43949;-72
2024/04/20 01:56:50;;;;;;;;;10.00;6.00;;;;;8.14;64.22;101944.94;5306301;26;59021;-74
2024/04/20 01:59:15;;;;;;;;;9.75;6.25;;;;;8.16;64.29;101952.69;5324670;26;69948;-72
2024/04/20 02:01:44;;;;;;;;;7.50;6.75;;;;;8.12;64.35;101946.88;5325448;26;43911;-74
2024/04/20 02:04:10;;;;;;;;;6.25;5.00;;;;;8.09;64.16;101948.94;5337161;26;43927;-73
2024/04/20 02:06:35;;;;;;;;;7.50;5.25;;;;;8.10;64.00;101955.91;5331665;26;43870;-73
2024/04/20 02:09:01;;;;;;;;;10.00;5.00;;;;;8.08;64.14;101963.13;5325949;26;45436;-73
2024/04/20 02:11:26;;;;;;;;;8.50;5.75;;;;;8.07;64.25;101964.94;5321412;26;68026;-75
2024/04/20 02:13:51;;;;;;;;;10.75;6.50;;;;;8.03;64.09;101958.28;5331146;26;61517;-72
2024/04/20 02:16:17;;;;;;;;;9.50;5.00;;;;;8.01;63.81;101966.31;5288711;26;69114;-75
2024/04/20 02:18:42;;;;;;;;;4.50;4.50;;;;;7.99;64.41;101973.56;5330521;26;67802;-73
2024/04/20 02:21:09;;;;;;;;;10.25;3.00;;;;;7.97;64.24;101970.22;5303783;26;60014;-72
2024/04/20 02:23:37;;;;;;;;;10.00;5.50;;;;;7.96;64.31;101976.47;5305323;26;44006;-73
2024/04/20 02:26:02;;;;;;;;;5.75;5.00;;;;;7.92;64.00;101972.44;5347139;26;46559;-72
2024/04/20 02:28:28;;;;;;;;;10.00;4.50;;;;;7.89;63.80;101970.06;5305461;26;45113;-72
2024/04/20 02:30:53;;;;;;;;;7.75;5.75;;;;;7.88;63.70;101973.69;5311403;26;71108;-73
2024/04/20 02:33:18;;;;;;;;;10.00;5.00;;;;;7.86;63.78;101979.06;5334093;26;64761;-72
2024/04/20 02:35:44;;;;;;;;;7.75;4.50;;;;;7.84;64.49;101967.81;5346546;26;43924;-73
2024/04/20 02:38:09;;;;;;;;;7.00;4.50;;;;;7.83;64.77;101971.44;5324174;26;43941;-73
2024/04/20 02:40:35;;;;;;;;;7.00;3.00;;;;;7.82;63.94;101979.50;5308290;26;46318;-72
2024/04/20 02:43:00;;;;;;;;;2.00;2.00;;;;;7.80;63.93;101978.81;5324006;26;47935;-72
2024/04/20 02:45:25;;;;;;;;;6.25;5.00;;;;;7.77;63.48;101979.88;5323177;26;43814;-72
2024/04/20 02:47:51;;;;;;;;;11.00;5.25;;;;;7.76;64.30;101980.03;5323568;26;44226;-72
2024/04/20 02:50:16;;;;;;;;;5.00;2.00;;;;;7.73;63.75;101978.50;5292414;26;63850;-72
2024/04/20 02:52:42;;;;;;;;;5.50;1.75;;;;;7.71;63.75;101972.50;5327380;26;44194;-72
2024/04/20 02:55:07;;;;;;;;;2.75;2.50;;;;;7.70;63.98;101978.75;5315820;26;67516;-73
2024/04/20 02:57:32;;;;;;;;;5.00;2.50;;;;;7.65;63.78;101976.53;5319543;26;68834;-73
2024/04/20 02:59:58;;;;;;;;;5.00;4.00;;;;;7.65;63.57;101978.34;5326722;26;65641;-73
2024/04/20 03:02:23;;;;;;;;;7.00;5.00;;;;;7.65;63.80;101989.75;5322924;26;61771;-72
2024/04/20 03:04:48;;;;;;;;;7.00;2.00;;;;;7.62;63.75;101987.38;5330087;26;67505;-72
2024/04/20 03:07:14;;;;;;;;;5.00;2.25;;;;;7.58;63.71;101988.63;5336028;26;69719;-72
2024/04/20 03:09:39;;;;;;;;;2.25;1.25;;;;;7.56;62.70;101993.16;5298143;26;43839;-72
2024/04/20 03:12:05;;;;;;;;;3.00;1.25;;;;;7.53;62.78;101996.91;5340089;26;62846;-72
2024/04/20 03:14:30;;;;;;;;;2.50;1.00;;;;;7.50;62.98;101991.06;5328318;26;43954;-72
2024/04/20 03:16:56;;;;;;;;;1.00;1.00;;;;;7.48;63.10;101996.47;5307543;26;69866;-72
2024/04/20 03:19:21;;;;;;;;;2.50;0.75;;;;;7.49;63.07;102003.44;5341814;26;69138;-72
2024/04/20 03:21:46;;;;;;;;;4.75;1.00;;;;;7.49;62.72;102003.44;5269857;26;64976;-73
2024/04/20 03:24:12;;;;;;;;;1.50;1.50;;;;;7.46;62.58;102001.06;5329268;26;44077;-72
2024/04/20 03:26:37;;;;;;;;;3.00;0.00;;;;;7.43;62.58;101996.88;5342800;26;44055;-72
2024/04/20 03:29:02;;;;;;;;;7.00;1.75;;;;;7.42;62.42;102002.28;5334024;26;67830;-72
2024/04/20 03:31:28;;;;;;;;;1.25;1.25;;;;;7.43;62.19;102006.59;5308777;26;44717;-72
2024/04/20 03:34:00;;;;;;;;;2.00;1.00;;;;;7.39;62.43;102008.66;5313965;26;44250;-72
2024/04/20 03:36:25;;;;;;;;;1.50;1.00;;;;;7.42;62.89;102007.56;5285568;26;44697;-72
2024/04/20 03:38:50;;;;;;;;;4.50;0.75;;;;;7.41;62.20;102011.19;5312099;26;69743;-72
2024/04/20 03:41:16;;;;;;;;;5.75;1.50;;;;;7.40;62.15;102022.69;5252669;26;44297;-73
2024/04/20 03:43:41;;;;;;;;;1.75;1.75;;;;;7.38;62.84;102030.72;5329420;26;44100;-72
2024/04/20 03:46:07;;;;;;;;;4.25;1.50;;;;;7.35;62.09;102023.09;5313330;26;46634;-73
2024/04/20 03:48:32;;;;;;;;;3.00;1.00;;;;;7.34;63.02;102024.03;5313144;26;43908;-73
2024/04/20 03:50:59;;;;;;;;;5.50;1.50;;;;;7.33;62.73;102027.66;5317947;26;44322;-72
2024/04/20 03:53:24;;;;;;;;;3.00;1.50;;;;;7.30;62.29;102030.56;5314098;26;43945;-73
2024/04/20 03:55:51;;;;;;;;;3.25;2.00;;;;;7.29;62.85;102031.53;5289499;26;45117;-72
2024/04/20 03:58:16;;;;;;;;;2.00;1.50;;;;;7.28;63.18;102038.63;5316637;26;44547;-73
2024/04/20 04:00:42;;;;;;;;;5.00;2.50;;;;;7.26;62.15;102034.41;5316724;26;66413;-73
2024/04/20 04:03:14;;;;;;;;;4.00;3.25;;;;;7.25;61.97;102043.31;5323720;26;67019;-74
2024/04/20 04:05:41;;;;;;;;;3.00;2.00;;;;;7.23;61.95;102038.19;5317539;26;44308;-73
2024/04/20 04:08:06;;;;;;;;;5.50;2.50;;;;;7.17;62.37;102043.94;5319582;26;43926;-74
2024/04/20 04:10:31;;;;;;;;;2.00;2.00;;;;;7.13;61.90;102043.38;5247474;27;65069;-72
2024/04/20 04:12:58;;;;;;;;;1.00;1.00;;;;;7.15;62.17;102048.50;5309646;26;60497;-72
2024/04/20 04:15:24;;;;;;;;;5.25;2.00;;;;;7.12;63.13;102054.03;5312162;26;46167;-73
2024/04/20 04:17:49;;;;;;;;;4.75;1.00;;;;;7.08;63.11;102052.63;5313485;26;44045;-75
2024/04/20 04:20:15;;;;;;;;;6.00;2.50;;;;;7.07;62.85;102046.53;5313245;26;44348;-72
2024/04/20 04:22:40;;;;;;;;;2.75;1.00;;;;;7.04;62.50;102049.44;5258947;26;44148;-75
2024/04/20 04:25:05;;;;;;;;;3.50;1.00;;;;;7.05;62.20;102059.03;5303166;26;68401;-73
2024/04/20 04:27:31;;;;;;;;;1.50;1.00;;;;;7.03;62.48;102054.81;5316180;26;44871;-73
2024/04/20 04:29:56;;;;;;;;;3.25;2.00;;;;;7.01;62.91;102057.59;5319913;26;64193;-73
2024/04/20 04:32:22;;;;;;;;;2.00;2.00;;;;;6.95;63.32;102048.38;5317563;26;51858;-72
2024/04/20 04:34:49;;;;;;;;;5.75;2.00;;;;;7.02;63.31;102061.91;5285931;26;67851;-71
2024/04/20 04:37:15;;;;;;;;;6.25;2.00;;;;;7.00;62.67;102058.56;5318644;26;44533;-74
2024/04/20 04:39:40;;;;;;;;;3.00;1.50;;;;;7.04;62.87;102062.63;5278480;26;49515;-73
2024/04/20 04:42:06;;;;;;;;;3.00;1.25;;;;;7.03;62.61;102068.00;5315494;26;69674;-72
2024/04/20 04:44:32;;;;;;;;;5.25;1.00;;;;;7.04;62.28;102061.75;5292393;26;45089;-72
2024/04/20 04:46:58;;;;;;;;;1.75;1.00;;;;;7.06;62.58;102073.03;5320559;26;43986;-72
2024/04/20 04:49:23;;;;;;;;;4.50;1.25;;;;;7.07;62.61;102077.34;5320251;26;44513;-72
2024/04/20 04:51:48;;;;;;;;;3.50;2.50;;;;;7.06;62.66;102079.16;5290189;26;66964;-72
2024/04/20 04:54:14;;;;;;;;;10.00;2.00;;;;;7.07;62.15;102083.47;5315257;26;61427;-73
2024/04/20 04:56:39;;;;;;;;;2.00;2.00;;;;;7.05;62.78;102080.13;5328389;26;67672;-73
2024/04/20 04:59:06;;;;;;;;;5.00;2.00;;;;;7.06;62.35;102080.94;5290091;26;64678;-73
2024/04/20 05:01:32;;;;;;;;;6.00;1.00;;;;;7.04;61.86;102088.13;5312442;26;44256;-71
2024/04/20 05:03:57;;;;;;;;;3.50;2.25;;;;;7.05;62.84;102082.75;5314209;26;45471;-72
2024/04/20 05:06:26;;;;;;;;;1.00;1.00;;;;;6.99;62.32;102075.34;5310829;26;69206;-73
2024/04/20 05:08:51;;;;;;;;;2.50;0.50;;;;;7.03;61.56;102091.75;5286552;26;43903;-74
2024/04/20 05:11:17;;;;;;;;;4.75;1.50;;;;;6.98;62.42;102082.41;5295040;26;44149;-72
2024/04/20 05:13:42;;;;;;;;;2.25;2.00;;;;;6.99;62.23;102089.34;5288018;26;70176;-73
2024/04/20 05:16:07;;;;;;;;;2.50;1.25;;;;;7.00;62.08;102096.31;5284499;26;62838;-73
2024/04/20 05:18:33;;;;;;;;;2.00;2.00;;;;;7.02;62.15;102103.25;5316038;26;63417;-73
2024/04/20 05:20:58;;;;;;;;;1.00;1.00;;;;;7.00;62.31;102111.31;5314738;26;44166;-72
2024/04/20 05:23:23;;;;;;;;;5.50;2.00;;;;;6.98;62.59;102110.59;5314754;26;44971;-72
2024/04/20 05:25:49;;;;;;;;;6.00;2.00;;;;;6.99;61.76;102112.28;5313125;26;44530;-73
2024/04/20 05:28:14;;;;;;;;;6.00;3.25;;;;;6.98;62.63;102119.31;5286371;26;50001;-72
2024/04/20 05:30:40;;;;;;;;;7.00;3.00;;;;;6.98;62.82;102127.25;5296412;26;44200;-72
2024/04/20 05:33:05;;;;;;;;;9.75;2.75;;;;;6.98;62.20;102124.59;5310597;26;61729;-72
2024/04/20 05:35:31;;;;;;;;;3.00;2.00;;;;;6.98;62.19;102132.50;5311523;26;44024;-73
2024/04/20 05:37:56;;;;;;;;;4.50;2.00;;;;;6.99;61.52;102141.28;5310768;26;44072;-73
2024/04/20 05:40:21;;;;;;;;;3.25;2.00;;;;;6.99;62.75;102133.38;5310060;26;67357;-73
2024/04/20 05:42:47;;;;;;;;;1.50;1.50;;;;;6.95;61.74;102132.78;5315260;26;43969;-72
2024/04/20 05:45:16;;;;;;;;;8.00;3.25;;;;;6.99;61.76;102142.09;5278977;26;68222;-73
2024/04/20 05:47:41;;;;;;;;;2.25;2.00;;;;;6.97;62.34;102141.38;5312391;26;44031;-73
2024/04/20 05:50:06;;;;;;;;;5.50;3.75;;;;;7.00;61.95;102156.97;5273507;26;67021;-73
2024/04/20 05:52:32;;;;;;;;;7.50;2.00;;;;;7.01;61.63;102155.16;5294318;26;62349;-72
2024/04/20 05:54:57;;;;;;;;;7.00;2.00;;;;;7.00;62.51;102151.69;5316101;26;69230;-73
2024/04/20 05:57:22;;;;;;;;;2.50;2.25;;;;;7.01;62.32;102163.09;5326900;26;44351;-72
2024/04/20 05:59:48;;;;;;;;;2.50;1.75;;;;;7.03;62.42;102161.16;5322310;26;66926;-74
2024/04/20 06:02:13;;;;;;;;;2.50;2.00;;;;;7.03;61.46;102163.78;5283556;26;68166;-72
2024/04/20 06:04:40;;;;;;;;;9.00;3.25;;;;;7.05;62.61;102167.13;5319998;26;61566;-74
2024/04/20 06:07:05;;;;;;;;;2.25;1.50;;;;;7.07;61.59;102169.63;5303282;26;44125;-72
2024/04/20 06:09:31;;;;;;;;;3.00;3.00;;;;;7.05;62.04;102167.13;5320309;26;68080;-74
2024/04/20 06:11:56;;;;;;;;;2.75;2.00;;;;;7.09;60.92;102173.00;5322180;26;44628;-73
2024/04/20 06:14:22;;;;;;;;;1.00;1.00;;;;;7.11;60.90;102176.34;5332296;26;61903;-73
2024/04/20 06:16:47;;;;;;;;;5.25;1.00;;;;;7.12;61.53;102175.38;5286549;26;63169;-75
2024/04/20 06:19:12;;;;;;;;;5.75;1.00;;;;;7.18;61.04;102177.50;5280655;26;64115;-72
2024/04/20 06:21:38;;;;;;;;;4.00;2.00;;;;;7.22;61.46;102186.88;5312801;26;69767;-71
2024/04/20 06:24:03;;;;;;;;;4.00;0.25;;;;;7.25;61.24;102185.75;5311281;26;68807;-73
2024/04/20 06:26:30;;;;;;;;;1.75;1.00;;;;;7.29;60.96;102179.25;5315229;26;44080;-71
2024/04/20 06:28:55;;;;;;;;;6.00;0.25;;;;;7.33;60.26;102185.13;5313043;26;44314;-71
2024/04/20 06:31:21;;;;;;;;;29.25;26.00;;;;;7.35;60.35;102184.03;5287361;26;44025;-73
2024/04/20 06:33:47;;;;;;;;;5.75;1.00;;;;;7.39;61.09;102188.09;5314335;26;60346;-73
2024/04/20 06:36:13;;;;;;;;;2.50;0.50;;;;;7.38;60.50;102182.94;5279747;26;44053;-72
2024/04/20 06:38:38;;;;;;;;;0.00;0.00;;;;;7.43;61.12;102191.31;5277590;26;43950;-71
2024/04/20 06:41:04;;;;;;;;;3.50;1.00;;;;;7.43;60.39;102188.69;5322465;26;66752;-71
2024/04/20 06:43:29;;;;;;;;;0.75;0.00;;;;;7.44;60.52;102188.53;5320326;26;44121;-72
2024/04/20 06:45:55;;;;;;;;;0.75;0.00;;;;;7.46;60.39;102195.50;5287513;26;44322;-72
2024/04/20 06:48:20;;;;;;;;;1.00;1.00;;;;;7.51;60.20;102201.22;5318322;26;45607;-72
2024/04/20 06:50:46;;;;;;;;;0.50;0.00;;;;;7.55;60.85;102215.84;5319700;26;45994;-72
2024/04/20 06:53:11;;;;;;;;;3.00;0.75;;;;;7.56;60.75;102215.72;5284840;26;44207;-72
2024/04/20 06:55:37;;;;;;;;;1.75;1.00;;;;;7.62;60.02;102216.16;5288679;26;43985;-72
2024/04/20 06:58:02;;;;;;;;;3.00;0.00;;;;;7.67;59.76;102228.03;5322798;26;44071;-72
2024/04/20 07:00:27;;;;;;;;;1.00;1.00;;;;;7.70;60.41;102225.13;5290980;26;54814;-73
2024/04/20 07:02:53;;;;;;;;;4.50;1.00;;;;;7.70;60.02;102222.50;5325957;26;44250;-73
2024/04/20 07:05:18;;;;;;;;;1.00;0.50;;;;;7.85;60.71;102230.06;5332051;26;52737;-73
2024/04/20 07:07:44;;;;;;;;;3.00;1.00;;;;;7.92;59.91;102233.03;5315932;26;44257;-73
2024/04/20 07:10:09;;;;;;;;;2.00;1.00;;;;;7.97;59.92;102228.22;5319417;26;44691;-73
2024/04/20 07:12:34;;;;;;;;;7.25;1.00;;;;;8.00;59.22;102235.88;5318362;26;68456;-72
2024/04/20 07:15:00;;;;;;;;;1.00;1.00;;;;;8.03;59.53;102231.16;5290384;26;44303;-73
2024/04/20 07:17:25;;;;;;;;;2.25;1.25;;;;;8.08;59.72;102240.50;5322761;26;68060;-72
2024/04/20 07:19:50;;;;;;;;;1.50;0.75;;;;;8.13;59.54;102244.41;5311918;26;71743;-72
2024/04/20 07:22:16;;;;;;;;;4.25;1.00;;;;;8.20;59.30;102247.34;5279393;26;50034;-72
2024/04/20 07:24:41;;;;;;;;;1.50;1.00;;;;;8.22;59.53;102248.06;5312872;26;44072;-72
2024/04/20 07:27:07;;;;;;;;;1.75;0.00;;;;;8.30;58.82;102258.81;5282571;26;64980;-71
2024/04/20 07:29:32;;;;;;;;;5.00;1.00;;;;;8.30;59.25;102248.22;5314925;26;67634;-72
2024/04/20 07:31:58;;;;;;;;;2.50;0.50;;;;;8.44;59.14;102257.63;5282907;26;44607;-72
2024/04/20 07:34:30;;;;;;;;;2.00;1.00;;;;;8.54;58.88;102249.78;5286153;26;44359;-72
2024/04/20 07:36:58;;;;;;;;;4.00;0.75;;;;;8.67;59.26;102248.69;5265851;26;43981;-73
2024/04/20 07:39:24;;;;;;;;;2.00;1.00;;;;;8.79;58.46;102244.97;5283540;26;44851;-72
2024/04/20 07:41:49;;;;;;;;;2.75;0.00;;;;;8.95;58.51;102254.19;5293966;26;44033;-72
2024/04/20 07:44:15;;;;;;;;;2.50;1.00;;;;;9.06;58.41;102251.41;5323516;26;44302;-72
2024/04/20 07:46:43;;;;;;;;;1.00;1.00;;;;;9.15;58.34;102252.41;5312644;26;45908;-72
2024/04/20 07:49:08;;;;;;;;;2.00;1.00;;;;;9.22;58.00;102247.41;5293814;26;46798;-72
2024/04/20 07:51:34;;;;;;;;;2.75;1.00;;;;;9.30;57.74;102250.19;5319545;26;65880;-71
2024/04/20 07:53:59;;;;;;;;;2.75;2.00;;;;;9.34;58.30;102244.47;5325250;26;43952;-72
2024/04/20 07:56:24;;;;;;;;;3.00;1.50;;;;;9.41;57.67;102263.28;5310286;26;65372;-71
2024/04/20 07:58:50;;;;;;;;;2.00;1.00;;;;;9.48;56.99;102264.41;5316376;26;44697;-72
2024/04/20 08:01:15;;;;;;;;;5.25;1.25;;;;;9.54;57.23;102260.38;5327976;26;65995;-69
2024/04/20 08:03:40;;;;;;;;;6.00;0.75;;;;;9.51;57.40;102247.41;5291092;26;63817;-69
2024/04/20 08:06:06;;;;;;;;;1.50;1.00;;;;;9.65;57.00;102266.50;5320496;26;65084;-73
2024/04/20 08:08:32;;;;;;;;;1.25;0.25;;;;;9.71;58.03;102269.41;5318772;26;66894;-72
2024/04/20 08:10:58;;;;;;;;;1.75;1.00;;;;;9.76;57.88;102267.16;5278030;26;44319;-72
2024/04/20 08:13:23;;;;;;;;;2.25;1.00;;;;;9.81;57.49;102268.56;5311905;26;44198;-72
2024/04/20 08:15:50;;;;;;;;;1.00;1.00;;;;;9.86;57.57;102272.47;5311866;26;64267;-72
2024/04/20 08:18:15;;;;;;;;;2.00;1.00;;;;;9.99;56.87;102276.63;5313181;26;45128;-73
2024/04/20 08:20:41;;;;;;;;;6.00;0.00;;;;;10.04;56.69;102279.66;5315299;26;44018;-73
2024/04/20 08:23:06;;;;;;;;;2.50;0.00;;;;;10.10;56.11;102286.22;5313975;26;44371;-72
2024/04/20 08:25:31;;;;;;;;;7.50;1.00;;;;;10.15;55.16;102282.16;5287719;26;60322;-72
2024/04/20 08:27:57;;;;;;;;;2.00;0.25;;;;;10.19;54.49;102291.47;5317981;26;61589;-73
2024/04/20 08:30:22;;;;;;;;;4.25;1.00;;;;;10.23;55.61;102288.56;5317962;26;67178;-72
2024/04/20 08:32:47;;;;;;;;;2.00;1.00;;;;;10.30;54.67;102287.84;5314522;26;44644;-73
2024/04/20 08:35:14;;;;;;;;;1.50;1.00;;;;;10.39;54.33;102293.25;5290156;26;67835;-72
2024/04/20 08:37:39;;;;;;;;;3.75;0.75;;;;;10.47;53.71;102306.66;5329790;26;45783;-73
2024/04/20 08:40:06;;;;;;;;;2.75;1.00;;;;;10.50;54.11;102301.03;5321347;26;44033;-72
2024/04/20 08:42:35;;;;;;;;;2.25;1.00;;;;;10.56;54.60;102302.28;5290599;26;44242;-72
2024/04/20 08:45:04;;;;;;;;;6.25;1.50;;;;;10.62;53.58;102301.72;5317645;26;44067;-72
2024/04/20 08:47:33;;;;;;;;;6.25;2.00;;;;;10.66;53.81;102296.97;5269784;26;47302;-72
2024/04/20 08:49:58;;;;;;;;;1.50;1.00;;;;;10.76;54.25;102303.88;5269508;26;44069;-73
2024/04/20 08:52:25;;;;;;;;;6.00;1.00;;;;;10.84;54.05;102300.50;5270029;26;63536;-75
2024/04/20 08:54:51;;;;;;;;;2.00;1.00;;;;;10.90;53.55;102305.19;5294039;26;44029;-73
2024/04/20 08:57:16;;;;;;;;;2.00;0.50;;;;;10.97;53.19;102307.25;5302895;26;44959;-72
2024/04/20 08:59:41;;;;;;;;;4.50;1.25;;;;;10.97;53.22;102305.44;5268477;26;67406;-72
2024/04/20 09:02:28;;;;;;;;;5.25;1.00;;;;;11.03;53.36;102306.66;5299024;26;54163;-72
2024/04/20 09:04:56;;;;;;;;;5.25;1.00;;;;;11.11;52.87;102306.75;5296938;26;44497;-72
2024/04/20 09:07:23;;;;;;;;;2.00;1.00;;;;;11.14;52.80;102309.09;5254559;26;45155;-72
2024/04/20 09:09:48;;;;;;;;;4.00;2.00;;;;;11.08;52.54;102305.25;5237144;26;43955;-72
2024/04/20 09:12:14;;;;;;;;;1.00;1.00;;;;;11.00;52.61;102294.53;5281283;26;44017;-74
2024/04/20 09:14:39;;;;;;;;;1.25;1.00;;;;;11.01;52.90;102303.31;5312690;26;69735;-72
2024/04/20 09:17:05;;;;;;;;;3.25;1.00;;;;;11.03;53.57;102311.97;5310525;26;69529;-73
2024/04/20 09:19:30;;;;;;;;;1.00;1.00;;;;;11.01;52.67;102308.63;5314565;26;46338;-72
2024/04/20 09:22:06;;;;;;;;;3.50;1.25;;;;;11.00;51.80;102313.13;5313857;26;44279;-72
2024/04/20 09:24:32;;;;;;;;;2.00;1.00;;;;;10.98;51.88;102314.25;5259472;26;44085;-73
2024/04/20 09:26:58;;;;;;;;;1.50;1.00;;;;;11.00;51.97;102322.88;5323962;26;54463;-72
2024/04/20 09:29:23;;;;;;;;;2.25;1.50;;;;;11.00;52.74;102320.22;5337887;26;44056;-72
2024/04/20 09:31:49;;;;;;;;;2.00;1.00;;;;;11.02;52.00;102328.88;5286334;26;58565;-72
2024/04/20 09:34:15;;;;;;;;;1.00;1.00;;;;;11.01;51.41;102324.56;5292587;26;43908;-72
2024/04/20 09:36:40;;;;;;;;;2.25;1.00;;;;;11.02;52.86;102318.25;5311175;26;44164;-72
2024/04/20 09:39:07;;;;;;;;;1.00;1.00;;;;;11.08;52.30;102317.66;5272182;26;44207;-72
2024/04/20 09:41:32;;;;;;;;;2.50;1.00;;;;;11.11;51.25;102322.69;5334945;26;44115;-72
2024/04/20 09:44:00;;;;;;;;;0.00;0.00;;;;;11.14;51.39;102318.91;5284684;26;43903;-72
2024/04/20 09:46:29;;;;;;;;;3.00;0.00;;;;;11.23;51.18;102315.34;5265126;26;44043;-71
2024/04/20 09:48:58;;;;;;;;;3.75;1.00;;;;;11.37;51.62;102316.66;5271841;26;44055;-69
2024/04/20 09:51:23;;;;;;;;;2.00;1.50;;;;;11.57;51.92;102306.69;5270022;26;44276;-72
2024/04/20 09:53:55;;;;;;;;;4.75;2.00;;;;;11.74;51.46;102306.84;5280806;26;43942;-73
2024/04/20 09:56:21;;;;;;;;;4.00;1.00;;;;;11.83;50.21;102303.28;5299284;26;45317;-72
2024/04/20 09:58:47;;;;;;;;;2.50;1.00;;;;;11.86;49.31;102304.78;5306390;26;44211;-73
2024/04/20 10:01:12;;;;;;;;;3.00;2.25;;;;;11.85;48.83;102309.28;5278759;26;44304;-73
2024/04/20 10:03:38;;;;;;;;;2.25;1.25;;;;;11.74;49.73;102293.53;5303496;26;44125;-72
2024/04/20 10:06:03;;;;;;;;;3.25;2.00;;;;;11.73;49.53;102307.81;5277415;26;57379;-73
2024/04/20 10:08:29;;;;;;;;;2.00;1.00;;;;;11.71;50.71;102312.44;5249596;26;44158;-72
2024/04/20 10:10:54;;;;;;;;;2.50;1.50;;;;;11.57;50.19;102297.91;5306615;26;44255;-72
2024/04/20 10:13:19;;;;;;;;;1.75;1.50;;;;;11.44;50.39;102299.13;5249431;26;44443;-70
2024/04/20 10:15:47;;;;;;;;;4.50;2.00;;;;;11.46;50.23;102307.78;5304073;26;59194;-71
2024/04/20 10:18:12;;;;;;;;;2.00;2.00;;;;;11.33;50.38;102292.22;5268963;26;44460;-72
2024/04/20 10:20:38;;;;;;;;;6.75;1.50;;;;;11.45;50.83;102318.53;5309010;26;51909;-72
2024/04/20 10:23:20;;;;;;;;;1.50;1.50;;;;;11.32;49.76;102297.66;5273921;26;44009;-72
2024/04/20 10:25:53;;;;;;;;;8.50;5.75;;;;;11.54;50.81;102316.81;5305227;26;44305;-72
2024/04/20 10:28:28;;;;;;;;;4.00;1.50;;;;;11.58;50.72;102316.34;5309246;26;44590;-71
2024/04/20 10:30:55;;;;;;;;;3.50;1.25;;;;;11.48;50.11;102308.47;5305419;26;44055;-72
2024/04/20 10:33:25;;;;;;;;;4.75;2.00;;;;;11.48;49.25;102302.31;5308580;26;44510;-71
2024/04/20 10:36:02;;;;;;;;;4.00;2.00;;;;;11.48;50.00;102308.47;5310247;26;45007;-72
2024/04/20 10:38:29;;;;;;;;;2.00;2.00;;;;;11.42;49.96;102298.44;5310092;26;43858;-72
2024/04/20 10:40:54;;;;;;;;;3.25;1.50;;;;;11.50;50.84;102318.91;5310883;26;44052;-72
2024/04/20 10:43:23;;;;;;;;;7.75;3.00;;;;;11.52;50.82;102328.41;5307199;26;52318;-72
2024/04/20 10:46:04;;;;;;;;;2.25;2.00;;;;;11.56;51.17;102328.13;5310328;26;44245;-71
2024/04/20 10:48:30;;;;;;;;;7.25;2.75;;;;;11.50;51.44;102319.78;5319387;26;44065;-72
2024/04/20 10:51:05;;;;;;;;;2.50;2.50;;;;;11.63;51.20;102331.84;5280148;26;44217;-71
2024/04/20 10:53:31;;;;;;;;;2.00;2.00;;;;;11.69;50.45;102320.59;5298676;26;44911;-71
2024/04/20 10:55:57;;;;;;;;;5.00;2.00;;;;;11.76;49.93;102324.31;5308767;26;45003;-71
2024/04/20 10:58:23;;;;;;;;;5.00;2.25;;;;;11.68;50.14;102297.66;5284275;26;44012;-71
2024/04/20 11:00:48;;;;;;;;;2.00;2.00;;;;;11.81;49.91;102302.59;5305543;26;44119;-70
2024/04/20 11:03:14;;;;;;;;;4.00;2.00;;;;;11.92;49.37;102315.63;5309450;26;53250;-71
2024/04/20 11:05:39;;;;;;;;;2.75;1.00;;;;;11.94;49.65;102320.78;5314448;26;64317;-70
2024/04/20 11:08:05;;;;;;;;;6.50;2.00;;;;;11.96;49.51;102317.00;5306121;26;44828;-72
2024/04/20 11:10:30;;;;;;;;;4.25;2.75;;;;;11.95;49.34;102298.53;5279436;26;44368;-71
2024/04/20 11:13:02;;;;;;;;;5.00;3.75;;;;;12.08;49.60;102325.56;5307509;26;44038;-71
2024/04/20 11:15:31;;;;;;;;;7.50;4.25;;;;;12.00;49.55;102304.25;5277930;26;45103;-71
2024/04/20 11:17:58;;;;;;;;;8.50;3.00;;;;;11.99;49.63;102302.53;5311584;26;43980;-72
2024/04/20 11:20:23;;;;;;;;;7.25;3.00;;;;;12.06;49.51;102308.13;5310593;26;44127;-73
2024/04/20 11:22:50;;;;;;;;;4.00;4.00;;;;;12.07;49.01;102312.44;5311101;26;44011;-73